sensor_id;sensor_type;location;lat;lon;timestamp;temperature;humidity
40660;DHT22;26753;45.544;9.232;2023-02-22T00:01:53;14.30;99.90
40660;DHT22;26753;45.544;9.232;2023-02-22T00:04:44;14.30;99.90
40660;DHT22;26753;45.544;9.232;2023-02-22T00:07:36;14.20;99.90
40660;DHT22;26753;45.544;9.232;2023-02-22T00:13:36;13.80;99.90
40660;DHT22;26753;45.544;9.232;2023-02-22T00:17:02;14.70;99.90
40660;DHT22;26753;45.544;9.232;2023-02-22T00:22:33;14.80;99.90
40660;DHT22;26753;45.544;9.232;2023-02-22T00:34:23;13.90;99.90
40660;DHT22;26753;45.544;9.232;2023-02-22T00:37:15;13.90;99.90
40660;DHT22;26753;45.544;9.232;2023-02-22T00:39:41;13.90;99.90
40660;DHT22;26753;45.544;9.232;2023-02-22T00:54:05;14.10;99.90
40660;DHT22;26753;45.544;9.232;2023-02-22T01:00:35;14.00;99.90
40660;DHT22;26753;45.544;9.232;2023-02-22T01:06:25;14.20;99.90
40660;DHT22;26753;45.544;9.232;2023-02-22T01:12:29;13.90;99.90
40660;DHT22;26753;45.544;9.232;2023-02-22T01:14:55;13.90;99.90
40660;DHT22;26753;45.544;9.232;2023-02-22T01:17:51;13.90;99.90
40660;DHT22;26753;45.544;9.232;2023-02-22T01:23:20;14.00;99.90
40660;DHT22;26753;45.544;9.232;2023-02-22T01:25:51;14.30;99.90
40660;DHT22;26753;45.544;9.232;2023-02-22T01:28:24;13.60;99.90
40660;DHT22;26753;45.544;9.232;2023-02-22T01:30:50;14.20;99.90
40660;DHT22;26753;45.544;9.232;2023-02-22T01:36:33;14.20;99.90
40660;DHT22;26753;45.544;9.232;2023-02-22T01:38:59;14.20;99.90
40660;DHT22;26753;45.544;9.232;2023-02-22T01:41:25;14.10;99.90
40660;DHT22;26753;45.544;9.232;2023-02-22T01:43:53;14.20;99.90
40660;DHT22;26753;45.544;9.232;2023-02-22T01:46:25;14.10;99.90
40660;DHT22;26753;45.544;9.232;2023-02-22T01:51:44;14.10;99.90
40660;DHT22;26753;45.544;9.232;2023-02-22T02:00:50;13.80;99.90
40660;DHT22;26753;45.544;9.232;2023-02-22T02:06:38;13.80;99.90
40660;DHT22;26753;45.544;9.232;2023-02-22T02:34:22;13.50;99.90
40660;DHT22;26753;45.544;9.232;2023-02-22T02:48:51;13.50;99.90
40660;DHT22;26753;45.544;9.232;2023-02-22T02:51:35;13.20;99.90
40660;DHT22;26753;45.544;9.232;2023-02-22T02:54:21;13.30;99.90
40660;DHT22;26753;45.544;9.232;2023-02-22T03:19:19;13.80;99.90
40660;DHT22;26753;45.544;9.232;2023-02-22T03:28:09;12.10;99.90
40660;DHT22;26753;45.544;9.232;2023-02-22T03:31:19;13.40;99.90
40660;DHT22;26753;45.544;9.232;2023-02-22T03:40:30;12.50;99.90
40660;DHT22;26753;45.544;9.232;2023-02-22T03:45:54;14.10;99.90
40660;DHT22;26753;45.544;9.232;2023-02-22T03:48:29;14.20;99.90
40660;DHT22;26753;45.544;9.232;2023-02-22T03:51:01;13.10;99.90
40660;DHT22;26753;45.544;9.232;2023-02-22T03:53:34;12.90;99.90
40660;DHT22;26753;45.544;9.232;2023-02-22T03:56:08;12.70;99.90
40660;DHT22;26753;45.544;9.232;2023-02-22T04:08:47;12.50;99.90
40660;DHT22;26753;45.544;9.232;2023-02-22T04:30:15;12.60;99.90
40660;DHT22;26753;45.544;9.232;2023-02-22T04:33:06;13.80;99.90
40660;DHT22;26753;45.544;9.232;2023-02-22T04:35:59;12.80;99.90
40660;DHT22;26753;45.544;9.232;2023-02-22T04:45:27;13.30;99.90
40660;DHT22;26753;45.544;9.232;2023-02-22T04:54:18;13.70;99.90
40660;DHT22;26753;45.544;9.232;2023-02-22T04:57:05;12.30;99.90
40660;DHT22;26753;45.544;9.232;2023-02-22T05:02:59;12.60;99.90
40660;DHT22;26753;45.544;9.232;2023-02-22T05:08:10;13.00;99.90
40660;DHT22;26753;45.544;9.232;2023-02-22T05:16:13;14.70;99.90
40660;DHT22;26753;45.544;9.232;2023-02-22T05:18:42;12.10;99.90
40660;DHT22;26753;45.544;9.232;2023-02-22T05:21:19;12.90;99.90
40660;DHT22;26753;45.544;9.232;2023-02-22T05:26:55;11.60;99.90
40660;DHT22;26753;45.544;9.232;2023-02-22T05:29:21;11.70;99.90
40660;DHT22;26753;45.544;9.232;2023-02-22T05:31:47;13.00;99.90
40660;DHT22;26753;45.544;9.232;2023-02-22T05:37:07;13.70;99.90
40660;DHT22;26753;45.544;9.232;2023-02-22T05:39:32;12.30;99.90
40660;DHT22;26753;45.544;9.232;2023-02-22T05:41:58;14.00;99.90
40660;DHT22;26753;45.544;9.232;2023-02-22T05:44:24;12.10;99.90
40660;DHT22;26753;45.544;9.232;2023-02-22T05:46:59;13.20;99.90
40660;DHT22;26753;45.544;9.232;2023-02-22T05:49:29;13.20;99.90
40660;DHT22;26753;45.544;9.232;2023-02-22T05:52:04;12.60;99.90
40660;DHT22;26753;45.544;9.232;2023-02-22T05:54:32;12.70;99.90
40660;DHT22;26753;45.544;9.232;2023-02-22T05:57:01;13.00;99.90
40660;DHT22;26753;45.544;9.232;2023-02-22T05:59:27;14.00;99.90
40660;DHT22;26753;45.544;9.232;2023-02-22T06:05:02;12.70;99.90
40660;DHT22;26753;45.544;9.232;2023-02-22T06:07:55;13.90;99.90
40660;DHT22;26753;45.544;9.232;2023-02-22T06:10:20;13.90;99.90
40660;DHT22;26753;45.544;9.232;2023-02-22T06:13:00;13.10;99.90
40660;DHT22;26753;45.544;9.232;2023-02-22T06:18:23;12.90;99.90
40660;DHT22;26753;45.544;9.232;2023-02-22T06:21:12;13.50;99.90
40660;DHT22;26753;45.544;9.232;2023-02-22T06:23:41;12.00;99.90
40660;DHT22;26753;45.544;9.232;2023-02-22T06:26:16;11.90;99.90
40660;DHT22;26753;45.544;9.232;2023-02-22T06:28:42;12.80;99.90
40660;DHT22;26753;45.544;9.232;2023-02-22T06:31:16;12.30;99.90
40660;DHT22;26753;45.544;9.232;2023-02-22T06:33:48;12.60;99.90
40660;DHT22;26753;45.544;9.232;2023-02-22T06:36:17;13.40;99.90
40660;DHT22;26753;45.544;9.232;2023-02-22T06:38:48;12.50;99.90
40660;DHT22;26753;45.544;9.232;2023-02-22T06:41:14;12.90;99.90
40660;DHT22;26753;45.544;9.232;2023-02-22T06:43:40;12.00;99.90
40660;DHT22;26753;45.544;9.232;2023-02-22T06:46:14;12.80;99.90
40660;DHT22;26753;45.544;9.232;2023-02-22T06:48:54;12.00;99.90
40660;DHT22;26753;45.544;9.232;2023-02-22T06:51:46;12.40;99.90
40660;DHT22;26753;45.544;9.232;2023-02-22T06:54:24;12.90;99.90
40660;DHT22;26753;45.544;9.232;2023-02-22T06:56:50;13.20;99.90
40660;DHT22;26753;45.544;9.232;2023-02-22T06:59:15;12.50;99.90
40660;DHT22;26753;45.544;9.232;2023-02-22T07:01:50;13.10;99.90
40660;DHT22;26753;45.544;9.232;2023-02-22T07:04:19;12.90;99.90
40660;DHT22;26753;45.544;9.232;2023-02-22T07:09:27;11.20;99.90
40660;DHT22;26753;45.544;9.232;2023-02-22T07:11:55;12.60;99.90
40660;DHT22;26753;45.544;9.232;2023-02-22T07:14:24;12.90;99.90
40660;DHT22;26753;45.544;9.232;2023-02-22T07:17:02;12.60;99.90
40660;DHT22;26753;45.544;9.232;2023-02-22T07:19:48;12.40;99.90
40660;DHT22;26753;45.544;9.232;2023-02-22T07:22:13;11.00;99.90
40660;DHT22;26753;45.544;9.232;2023-02-22T07:24:39;14.90;99.90
40660;DHT22;26753;45.544;9.232;2023-02-22T07:27:05;12.20;99.90
40660;DHT22;26753;45.544;9.232;2023-02-22T07:29:38;13.00;99.90
40660;DHT22;26753;45.544;9.232;2023-02-22T07:32:09;12.20;99.90
40660;DHT22;26753;45.544;9.232;2023-02-22T07:34:35;13.10;99.90
40660;DHT22;26753;45.544;9.232;2023-02-22T07:37:03;12.40;99.90
40660;DHT22;26753;45.544;9.232;2023-02-22T07:39:29;11.90;99.90
40660;DHT22;26753;45.544;9.232;2023-02-22T07:41:55;14.00;99.90
40660;DHT22;26753;45.544;9.232;2023-02-22T07:45:09;12.10;99.90
40660;DHT22;26753;45.544;9.232;2023-02-22T07:47:28;14.20;99.90
40660;DHT22;26753;45.544;9.232;2023-02-22T07:49:53;13.60;99.90
40660;DHT22;26753;45.544;9.232;2023-02-22T07:52:19;12.30;99.90
40660;DHT22;26753;45.544;9.232;2023-02-22T07:57:51;12.30;99.90
40660;DHT22;26753;45.544;9.232;2023-02-22T08:00:21;12.30;99.90
40660;DHT22;26753;45.544;9.232;2023-02-22T08:02:48;12.80;99.90
40660;DHT22;26753;45.544;9.232;2023-02-22T08:05:13;12.20;99.90
40660;DHT22;26753;45.544;9.232;2023-02-22T08:07:42;14.30;99.90
40660;DHT22;26753;45.544;9.232;2023-02-22T08:10:24;12.90;99.90
40660;DHT22;26753;45.544;9.232;2023-02-22T08:12:53;14.00;99.90
40660;DHT22;26753;45.544;9.232;2023-02-22T08:15:20;13.00;99.90
40660;DHT22;26753;45.544;9.232;2023-02-22T08:17:52;13.00;99.90
40660;DHT22;26753;45.544;9.232;2023-02-22T08:20:18;14.00;99.90
40660;DHT22;26753;45.544;9.232;2023-02-22T08:28:35;13.30;99.90
40660;DHT22;26753;45.544;9.232;2023-02-22T08:31:04;13.90;99.90
40660;DHT22;26753;45.544;9.232;2023-02-22T08:34:08;13.30;99.90
40660;DHT22;26753;45.544;9.232;2023-02-22T08:45:44;13.10;99.90
40660;DHT22;26753;45.544;9.232;2023-02-22T08:48:15;14.00;99.90
40660;DHT22;26753;45.544;9.232;2023-02-22T08:50:44;13.50;99.90
40660;DHT22;26753;45.544;9.232;2023-02-22T08:53:19;13.60;99.90
40660;DHT22;26753;45.544;9.232;2023-02-22T08:59:06;14.70;99.90
40660;DHT22;26753;45.544;9.232;2023-02-22T09:01:44;13.70;99.90
40660;DHT22;26753;45.544;9.232;2023-02-22T09:13:59;14.00;99.90
40660;DHT22;26753;45.544;9.232;2023-02-22T09:31:50;14.50;99.90
40660;DHT22;26753;45.544;9.232;2023-02-22T09:40:30;14.50;99.90
40660;DHT22;26753;45.544;9.232;2023-02-22T09:46:04;14.40;99.90
40660;DHT22;26753;45.544;9.232;2023-02-22T10:07:05;14.60;99.90
40660;DHT22;26753;45.544;9.232;2023-02-22T10:09:46;14.80;99.90
40660;DHT22;26753;45.544;9.232;2023-02-22T10:30:49;15.40;99.90
40660;DHT22;26753;45.544;9.232;2023-02-22T10:33:22;15.60;99.90
40660;DHT22;26753;45.544;9.232;2023-02-22T10:42:30;16.30;99.90
40660;DHT22;26753;45.544;9.232;2023-02-22T10:51:23;16.80;99.90
40660;DHT22;26753;45.544;9.232;2023-02-22T10:53:55;16.90;99.90
40660;DHT22;26753;45.544;9.232;2023-02-22T10:56:31;17.00;99.90
40660;DHT22;26753;45.544;9.232;2023-02-22T10:59:03;17.10;99.90
40660;DHT22;26753;45.544;9.232;2023-02-22T11:01:48;17.30;99.90
40660;DHT22;26753;45.544;9.232;2023-02-22T11:04:15;17.50;99.90
40660;DHT22;26753;45.544;9.232;2023-02-22T11:09:44;17.40;99.90
40660;DHT22;26753;45.544;9.232;2023-02-22T11:12:21;17.30;99.90
40660;DHT22;26753;45.544;9.232;2023-02-22T11:18:15;17.50;99.90
40660;DHT22;26753;45.544;9.232;2023-02-22T11:21:06;17.50;99.90
40660;DHT22;26753;45.544;9.232;2023-02-22T11:23:54;17.50;99.90
40660;DHT22;26753;45.544;9.232;2023-02-22T11:29:35;17.60;99.90
40660;DHT22;26753;45.544;9.232;2023-02-22T11:32:25;17.70;99.90
40660;DHT22;26753;45.544;9.232;2023-02-22T11:58:48;18.90;99.90
40660;DHT22;26753;45.544;9.232;2023-02-22T12:09:12;19.80;99.90
40660;DHT22;26753;45.544;9.232;2023-02-22T12:20:01;20.80;99.90
40660;DHT22;26753;45.544;9.232;2023-02-22T12:22:33;21.20;99.90
40660;DHT22;26753;45.544;9.232;2023-02-22T12:25:16;21.30;99.90
40660;DHT22;26753;45.544;9.232;2023-02-22T12:27:54;21.30;99.90
40660;DHT22;26753;45.544;9.232;2023-02-22T12:30:23;21.00;99.90
40660;DHT22;26753;45.544;9.232;2023-02-22T12:32:53;20.80;99.90
40660;DHT22;26753;45.544;9.232;2023-02-22T12:35:22;21.20;99.90
40660;DHT22;26753;45.544;9.232;2023-02-22T12:37:55;21.50;99.90
40660;DHT22;26753;45.544;9.232;2023-02-22T12:40:43;22.10;99.90
40660;DHT22;26753;45.544;9.232;2023-02-22T12:43:22;23.90;99.90
40660;DHT22;26753;45.544;9.232;2023-02-22T12:46:03;26.30;99.30
40660;DHT22;26753;45.544;9.232;2023-02-22T12:57:00;24.60;96.70
40660;DHT22;26753;45.544;9.232;2023-02-22T12:59:31;24.90;96.30
40660;DHT22;26753;45.544;9.232;2023-02-22T13:02:44;25.60;95.00
40660;DHT22;26753;45.544;9.232;2023-02-22T13:04:49;25.00;94.20
40660;DHT22;26753;45.544;9.232;2023-02-22T13:10:06;25.70;93.70
40660;DHT22;26753;45.544;9.232;2023-02-22T13:28:56;23.80;90.40
40660;DHT22;26753;45.544;9.232;2023-02-22T13:51:48;22.00;94.30
40660;DHT22;26753;45.544;9.232;2023-02-22T13:54:22;22.60;94.10
40660;DHT22;26753;45.544;9.232;2023-02-22T13:56:49;25.50;92.30
40660;DHT22;26753;45.544;9.232;2023-02-22T13:59:29;28.00;89.40
40660;DHT22;26753;45.544;9.232;2023-02-22T14:02:03;28.60;85.90
40660;DHT22;26753;45.544;9.232;2023-02-22T14:06:55;26.40;85.10
40660;DHT22;26753;45.544;9.232;2023-02-22T14:12:36;24.90;88.20
40660;DHT22;26753;45.544;9.232;2023-02-22T14:25:42;23.60;90.00
40660;DHT22;26753;45.544;9.232;2023-02-22T14:28:36;23.00;90.10
40660;DHT22;26753;45.544;9.232;2023-02-22T14:37:06;21.70;91.90
40660;DHT22;26753;45.544;9.232;2023-02-22T14:42:50;21.90;92.60
40660;DHT22;26753;45.544;9.232;2023-02-22T14:45:32;21.90;92.60
40660;DHT22;26753;45.544;9.232;2023-02-22T14:48:18;22.20;92.60
40660;DHT22;26753;45.544;9.232;2023-02-22T14:50:58;22.40;92.00
40660;DHT22;26753;45.544;9.232;2023-02-22T14:57:00;21.60;92.50
40660;DHT22;26753;45.544;9.232;2023-02-22T14:59:42;21.30;93.00
40660;DHT22;26753;45.544;9.232;2023-02-22T15:02:16;21.00;93.10
40660;DHT22;26753;45.544;9.232;2023-02-22T15:04:49;20.80;93.30
40660;DHT22;26753;45.544;9.232;2023-02-22T15:07:45;20.60;93.80
40660;DHT22;26753;45.544;9.232;2023-02-22T15:10:21;20.40;94.20
40660;DHT22;26753;45.544;9.232;2023-02-22T15:13:04;20.20;94.60
40660;DHT22;26753;45.544;9.232;2023-02-22T15:15:37;19.90;95.00
40660;DHT22;26753;45.544;9.232;2023-02-22T15:18:04;19.60;95.30
40660;DHT22;26753;45.544;9.232;2023-02-22T15:20:35;19.20;95.80
40660;DHT22;26753;45.544;9.232;2023-02-22T15:23:05;19.10;96.10
40660;DHT22;26753;45.544;9.232;2023-02-22T15:25:31;18.90;96.30
40660;DHT22;26753;45.544;9.232;2023-02-22T15:28:00;18.80;96.60
40660;DHT22;26753;45.544;9.232;2023-02-22T15:30:28;18.70;97.10
40660;DHT22;26753;45.544;9.232;2023-02-22T15:33:19;18.40;97.70
40660;DHT22;26753;45.544;9.232;2023-02-22T15:35:54;18.10;98.50
40660;DHT22;26753;45.544;9.232;2023-02-22T15:38:21;18.00;99.40
40660;DHT22;26753;45.544;9.232;2023-02-22T15:41:04;17.80;99.90
40660;DHT22;26753;45.544;9.232;2023-02-22T15:43:33;17.50;99.90
40660;DHT22;26753;45.544;9.232;2023-02-22T15:45:59;17.60;99.90
40660;DHT22;26753;45.544;9.232;2023-02-22T15:48:25;17.80;99.90
40660;DHT22;26753;45.544;9.232;2023-02-22T15:51:06;17.50;99.90
40660;DHT22;26753;45.544;9.232;2023-02-22T15:53:37;17.40;99.90
40660;DHT22;26753;45.544;9.232;2023-02-22T15:56:08;17.00;99.90
40660;DHT22;26753;45.544;9.232;2023-02-22T15:58:34;17.00;99.90
40660;DHT22;26753;45.544;9.232;2023-02-22T16:03:56;16.90;99.90
40660;DHT22;26753;45.544;9.232;2023-02-22T16:06:28;16.60;99.90
40660;DHT22;26753;45.544;9.232;2023-02-22T16:08:55;16.40;99.90
40660;DHT22;26753;45.544;9.232;2023-02-22T16:11:42;16.40;99.90
40660;DHT22;26753;45.544;9.232;2023-02-22T16:20:27;16.30;99.90
40660;DHT22;26753;45.544;9.232;2023-02-22T16:22:46;16.20;99.90
40660;DHT22;26753;45.544;9.232;2023-02-22T16:27:57;16.00;99.90
40660;DHT22;26753;45.544;9.232;2023-02-22T16:30:36;16.00;99.90
40660;DHT22;26753;45.544;9.232;2023-02-22T16:33:22;15.80;99.90
40660;DHT22;26753;45.544;9.232;2023-02-22T16:35:50;16.00;99.90
40660;DHT22;26753;45.544;9.232;2023-02-22T16:38:56;15.90;99.90
40660;DHT22;26753;45.544;9.232;2023-02-22T16:41:23;15.80;99.90
40660;DHT22;26753;45.544;9.232;2023-02-22T16:43:56;15.80;99.90
40660;DHT22;26753;45.544;9.232;2023-02-22T16:49:24;15.70;99.90
40660;DHT22;26753;45.544;9.232;2023-02-22T16:51:53;15.70;99.90
40660;DHT22;26753;45.544;9.232;2023-02-22T16:57:42;16.70;99.90
40660;DHT22;26753;45.544;9.232;2023-02-22T17:00:41;15.30;99.90
40660;DHT22;26753;45.544;9.232;2023-02-22T17:03:01;15.20;99.90
40660;DHT22;26753;45.544;9.232;2023-02-22T17:05:31;15.20;99.90
40660;DHT22;26753;45.544;9.232;2023-02-22T17:08:00;15.20;99.90
40660;DHT22;26753;45.544;9.232;2023-02-22T17:10:29;15.20;99.90
40660;DHT22;26753;45.544;9.232;2023-02-22T17:13:01;15.10;99.90
40660;DHT22;26753;45.544;9.232;2023-02-22T17:15:34;15.10;99.90
40660;DHT22;26753;45.544;9.232;2023-02-22T17:18:00;15.20;99.90
40660;DHT22;26753;45.544;9.232;2023-02-22T17:20:37;15.10;99.90
40660;DHT22;26753;45.544;9.232;2023-02-22T17:23:04;15.00;99.90
40660;DHT22;26753;45.544;9.232;2023-02-22T17:25:41;15.00;99.90
40660;DHT22;26753;45.544;9.232;2023-02-22T17:28:07;15.10;99.90
40660;DHT22;26753;45.544;9.232;2023-02-22T17:30:38;15.10;99.90
40660;DHT22;26753;45.544;9.232;2023-02-22T17:35:57;15.10;99.90
40660;DHT22;26753;45.544;9.232;2023-02-22T17:38:26;15.10;99.90
40660;DHT22;26753;45.544;9.232;2023-02-22T17:41:03;14.90;99.90
40660;DHT22;26753;45.544;9.232;2023-02-22T17:43:33;14.90;99.90
40660;DHT22;26753;45.544;9.232;2023-02-22T17:45:59;14.90;99.90
40660;DHT22;26753;45.544;9.232;2023-02-22T17:48:32;14.80;99.90
40660;DHT22;26753;45.544;9.232;2023-02-22T17:50:58;14.80;99.90
40660;DHT22;26753;45.544;9.232;2023-02-22T17:53:42;14.70;99.90
40660;DHT22;26753;45.544;9.232;2023-02-22T17:56:09;14.80;99.90
40660;DHT22;26753;45.544;9.232;2023-02-22T17:58:46;14.80;99.90
40660;DHT22;26753;45.544;9.232;2023-02-22T18:01:20;14.70;99.90
40660;DHT22;26753;45.544;9.232;2023-02-22T18:03:49;14.80;99.90
40660;DHT22;26753;45.544;9.232;2023-02-22T18:06:21;14.70;99.90
40660;DHT22;26753;45.544;9.232;2023-02-22T18:08:47;14.70;99.90
40660;DHT22;26753;45.544;9.232;2023-02-22T18:11:15;14.70;99.90
40660;DHT22;26753;45.544;9.232;2023-02-22T18:13:41;14.60;99.90
40660;DHT22;26753;45.544;9.232;2023-02-22T18:16:07;14.70;99.90
40660;DHT22;26753;45.544;9.232;2023-02-22T18:18:34;14.60;99.90
40660;DHT22;26753;45.544;9.232;2023-02-22T18:21:00;14.70;99.90
40660;DHT22;26753;45.544;9.232;2023-02-22T18:23:30;14.70;99.90
40660;DHT22;26753;45.544;9.232;2023-02-22T18:25:57;14.70;99.90
40660;DHT22;26753;45.544;9.232;2023-02-22T18:28:26;14.60;99.90
40660;DHT22;26753;45.544;9.232;2023-02-22T18:30:55;14.50;99.90
40660;DHT22;26753;45.544;9.232;2023-02-22T18:33:26;14.60;99.90
40660;DHT22;26753;45.544;9.232;2023-02-22T18:35:52;14.70;99.90
40660;DHT22;26753;45.544;9.232;2023-02-22T18:38:18;14.60;99.90
40660;DHT22;26753;45.544;9.232;2023-02-22T18:41:02;14.70;99.90
40660;DHT22;26753;45.544;9.232;2023-02-22T18:43:28;14.70;99.90
40660;DHT22;26753;45.544;9.232;2023-02-22T18:46:08;14.80;99.90
40660;DHT22;26753;45.544;9.232;2023-02-22T18:48:44;14.80;99.90
40660;DHT22;26753;45.544;9.232;2023-02-22T18:51:13;14.70;99.90
40660;DHT22;26753;45.544;9.232;2023-02-22T18:53:40;14.70;99.90
40660;DHT22;26753;45.544;9.232;2023-02-22T18:56:14;14.60;99.90
40660;DHT22;26753;45.544;9.232;2023-02-22T18:58:43;14.60;99.90
40660;DHT22;26753;45.544;9.232;2023-02-22T19:01:15;15.50;99.90
40660;DHT22;26753;45.544;9.232;2023-02-22T19:03:53;14.90;99.90
40660;DHT22;26753;45.544;9.232;2023-02-22T19:06:28;14.40;99.90
40660;DHT22;26753;45.544;9.232;2023-02-22T19:08:53;14.40;99.90
40660;DHT22;26753;45.544;9.232;2023-02-22T19:11:25;14.40;99.90
40660;DHT22;26753;45.544;9.232;2023-02-22T19:13:58;14.40;99.90
40660;DHT22;26753;45.544;9.232;2023-02-22T19:16:33;14.50;99.90
40660;DHT22;26753;45.544;9.232;2023-02-22T19:19:02;14.40;99.90
40660;DHT22;26753;45.544;9.232;2023-02-22T19:21:29;14.50;99.90
40660;DHT22;26753;45.544;9.232;2023-02-22T19:26:34;14.50;99.90
40660;DHT22;26753;45.544;9.232;2023-02-22T19:29:14;14.50;99.90
40660;DHT22;26753;45.544;9.232;2023-02-22T19:31:46;14.50;99.90
40660;DHT22;26753;45.544;9.232;2023-02-22T19:34:18;14.50;99.90
40660;DHT22;26753;45.544;9.232;2023-02-22T19:36:48;14.50;99.90
40660;DHT22;26753;45.544;9.232;2023-02-22T19:39:25;14.50;99.90
40660;DHT22;26753;45.544;9.232;2023-02-22T19:41:54;15.20;99.90
40660;DHT22;26753;45.544;9.232;2023-02-22T19:44:23;14.60;99.90
40660;DHT22;26753;45.544;9.232;2023-02-22T19:46:50;14.40;99.90
40660;DHT22;26753;45.544;9.232;2023-02-22T19:49:15;14.40;99.90
40660;DHT22;26753;45.544;9.232;2023-02-22T19:51:44;14.40;99.90
40660;DHT22;26753;45.544;9.232;2023-02-22T19:54:13;14.40;99.90
40660;DHT22;26753;45.544;9.232;2023-02-22T19:56:41;14.40;99.90
40660;DHT22;26753;45.544;9.232;2023-02-22T19:59:08;14.40;99.90
40660;DHT22;26753;45.544;9.232;2023-02-22T20:01:38;14.40;99.90
40660;DHT22;26753;45.544;9.232;2023-02-22T20:04:05;14.10;99.90
40660;DHT22;26753;45.544;9.232;2023-02-22T20:06:32;14.40;99.90
40660;DHT22;26753;45.544;9.232;2023-02-22T20:08:59;14.40;99.90
40660;DHT22;26753;45.544;9.232;2023-02-22T20:11:28;14.30;99.90
40660;DHT22;26753;45.544;9.232;2023-02-22T20:13:54;14.30;99.90
40660;DHT22;26753;45.544;9.232;2023-02-22T20:16:20;14.10;99.90
40660;DHT22;26753;45.544;9.232;2023-02-22T20:18:46;14.40;99.90
40660;DHT22;26753;45.544;9.232;2023-02-22T20:21:16;14.40;99.90
40660;DHT22;26753;45.544;9.232;2023-02-22T20:23:42;14.30;99.90
40660;DHT22;26753;45.544;9.232;2023-02-22T20:26:18;14.30;99.90
40660;DHT22;26753;45.544;9.232;2023-02-22T20:28:44;13.90;99.90
40660;DHT22;26753;45.544;9.232;2023-02-22T20:31:10;14.30;99.90
40660;DHT22;26753;45.544;9.232;2023-02-22T20:33:44;14.60;99.90
40660;DHT22;26753;45.544;9.232;2023-02-22T20:36:10;14.30;99.90
40660;DHT22;26753;45.544;9.232;2023-02-22T20:38:36;14.40;99.90
40660;DHT22;26753;45.544;9.232;2023-02-22T20:41:06;14.30;99.90
40660;DHT22;26753;45.544;9.232;2023-02-22T20:43:32;14.30;99.90
40660;DHT22;26753;45.544;9.232;2023-02-22T20:46:01;14.20;99.90
40660;DHT22;26753;45.544;9.232;2023-02-22T20:48:27;14.00;99.90
40660;DHT22;26753;45.544;9.232;2023-02-22T20:50:53;14.10;99.90
40660;DHT22;26753;45.544;9.232;2023-02-22T20:53:18;14.10;99.90
40660;DHT22;26753;45.544;9.232;2023-02-22T20:55:53;14.10;99.90
40660;DHT22;26753;45.544;9.232;2023-02-22T20:58:20;14.20;99.90
40660;DHT22;26753;45.544;9.232;2023-02-22T21:00:45;14.10;99.90
40660;DHT22;26753;45.544;9.232;2023-02-22T21:03:11;14.10;99.90
40660;DHT22;26753;45.544;9.232;2023-02-22T21:05:40;14.10;99.90
40660;DHT22;26753;45.544;9.232;2023-02-22T21:08:06;14.10;99.90
40660;DHT22;26753;45.544;9.232;2023-02-22T21:10:34;14.10;99.90
40660;DHT22;26753;45.544;9.232;2023-02-22T21:13:04;14.30;99.90
40660;DHT22;26753;45.544;9.232;2023-02-22T21:15:32;14.00;99.90
40660;DHT22;26753;45.544;9.232;2023-02-22T21:17:57;13.90;99.90
40660;DHT22;26753;45.544;9.232;2023-02-22T21:20:23;14.00;99.90
40660;DHT22;26753;45.544;9.232;2023-02-22T21:22:49;14.50;99.90
40660;DHT22;26753;45.544;9.232;2023-02-22T21:25:18;14.00;99.90
40660;DHT22;26753;45.544;9.232;2023-02-22T21:27:43;14.00;99.90
40660;DHT22;26753;45.544;9.232;2023-02-22T21:30:09;14.10;99.90
40660;DHT22;26753;45.544;9.232;2023-02-22T21:32:35;14.10;99.90
40660;DHT22;26753;45.544;9.232;2023-02-22T21:35:04;14.10;99.90
40660;DHT22;26753;45.544;9.232;2023-02-22T21:37:32;14.20;99.90
40660;DHT22;26753;45.544;9.232;2023-02-22T21:40:00;14.20;99.90
40660;DHT22;26753;45.544;9.232;2023-02-22T21:42:25;14.10;99.90
40660;DHT22;26753;45.544;9.232;2023-02-22T21:44:51;14.10;99.90
40660;DHT22;26753;45.544;9.232;2023-02-22T21:47:21;14.10;99.90
40660;DHT22;26753;45.544;9.232;2023-02-22T21:49:47;14.20;99.90
40660;DHT22;26753;45.544;9.232;2023-02-22T21:52:13;14.10;99.90
40660;DHT22;26753;45.544;9.232;2023-02-22T21:54:42;14.20;99.90
40660;DHT22;26753;45.544;9.232;2023-02-22T21:57:08;14.10;99.90
40660;DHT22;26753;45.544;9.232;2023-02-22T21:59:34;14.30;99.90
40660;DHT22;26753;45.544;9.232;2023-02-22T22:02:00;14.20;99.90
40660;DHT22;26753;45.544;9.232;2023-02-22T22:04:27;14.20;99.90
40660;DHT22;26753;45.544;9.232;2023-02-22T22:06:56;14.70;99.90
40660;DHT22;26753;45.544;9.232;2023-02-22T22:09:26;14.20;99.90
40660;DHT22;26753;45.544;9.232;2023-02-22T22:11:57;14.10;99.90
40660;DHT22;26753;45.544;9.232;2023-02-22T22:14:24;14.10;99.90
40660;DHT22;26753;45.544;9.232;2023-02-22T22:16:51;14.10;99.90
40660;DHT22;26753;45.544;9.232;2023-02-22T22:19:18;14.10;99.90
40660;DHT22;26753;45.544;9.232;2023-02-22T22:21:49;14.10;99.90
40660;DHT22;26753;45.544;9.232;2023-02-22T22:24:18;14.00;99.90
40660;DHT22;26753;45.544;9.232;2023-02-22T22:26:49;14.10;99.90
40660;DHT22;26753;45.544;9.232;2023-02-22T22:29:19;14.10;99.90
40660;DHT22;26753;45.544;9.232;2023-02-22T22:31:45;14.00;99.90
40660;DHT22;26753;45.544;9.232;2023-02-22T22:34:10;14.00;99.90
40660;DHT22;26753;45.544;9.232;2023-02-22T22:36:36;13.90;99.90
40660;DHT22;26753;45.544;9.232;2023-02-22T22:39:05;13.90;99.90
40660;DHT22;26753;45.544;9.232;2023-02-22T22:41:40;14.00;99.90
40660;DHT22;26753;45.544;9.232;2023-02-22T22:44:07;14.70;99.90
40660;DHT22;26753;45.544;9.232;2023-02-22T22:46:34;13.90;99.90
40660;DHT22;26753;45.544;9.232;2023-02-22T22:49:00;13.90;99.90
40660;DHT22;26753;45.544;9.232;2023-02-22T22:51:26;13.90;99.90
40660;DHT22;26753;45.544;9.232;2023-02-22T22:53:57;13.90;99.90
40660;DHT22;26753;45.544;9.232;2023-02-22T22:56:26;13.80;99.90
40660;DHT22;26753;45.544;9.232;2023-02-22T22:58:53;13.90;99.90
40660;DHT22;26753;45.544;9.232;2023-02-22T23:01:34;13.90;99.90
40660;DHT22;26753;45.544;9.232;2023-02-22T23:04:06;13.90;99.90
40660;DHT22;26753;45.544;9.232;2023-02-22T23:06:43;14.00;99.90
40660;DHT22;26753;45.544;9.232;2023-02-22T23:14:54;13.90;99.90
40660;DHT22;26753;45.544;9.232;2023-02-22T23:17:22;13.90;99.90
40660;DHT22;26753;45.544;9.232;2023-02-22T23:19:58;13.90;99.90
40660;DHT22;26753;45.544;9.232;2023-02-22T23:22:35;13.90;99.90
40660;DHT22;26753;45.544;9.232;2023-02-22T23:25:03;13.90;99.90
40660;DHT22;26753;45.544;9.232;2023-02-22T23:27:29;13.90;99.90
40660;DHT22;26753;45.544;9.232;2023-02-22T23:29:54;13.80;99.90
40660;DHT22;26753;45.544;9.232;2023-02-22T23:32:20;13.90;99.90
40660;DHT22;26753;45.544;9.232;2023-02-22T23:34:46;13.90;99.90
40660;DHT22;26753;45.544;9.232;2023-02-22T23:37:14;13.90;99.90
40660;DHT22;26753;45.544;9.232;2023-02-22T23:39:40;13.80;99.90
40660;DHT22;26753;45.544;9.232;2023-02-22T23:42:06;13.80;99.90